sensor_id;sensor_type;location;lat;lon;timestamp;temperature;humidity
39925;DHT22;25592;49.986;11.618;2023-02-21T00:01:13;10.60;99.90
39925;DHT22;25592;49.986;11.618;2023-02-21T00:04:17;10.50;99.90
39925;DHT22;25592;49.986;11.618;2023-02-21T00:07:21;10.50;99.90
39925;DHT22;25592;49.986;11.618;2023-02-21T00:10:26;10.60;99.90
39925;DHT22;25592;49.986;11.618;2023-02-21T00:13:29;10.50;99.90
39925;DHT22;25592;49.986;11.618;2023-02-21T00:16:33;10.60;99.90
39925;DHT22;25592;49.986;11.618;2023-02-21T00:19:37;10.50;99.90
39925;DHT22;25592;49.986;11.618;2023-02-21T00:22:41;10.60;99.90
39925;DHT22;25592;49.986;11.618;2023-02-21T00:25:45;10.70;99.90
39925;DHT22;25592;49.986;11.618;2023-02-21T00:28:48;10.70;99.90
39925;DHT22;25592;49.986;11.618;2023-02-21T00:31:53;10.70;99.90
39925;DHT22;25592;49.986;11.618;2023-02-21T00:34:57;10.60;99.90
39925;DHT22;25592;49.986;11.618;2023-02-21T00:38:00;10.60;99.90
39925;DHT22;25592;49.986;11.618;2023-02-21T00:41:04;10.50;99.90
39925;DHT22;25592;49.986;11.618;2023-02-21T00:44:08;10.40;99.90
39925;DHT22;25592;49.986;11.618;2023-02-21T00:47:12;10.30;99.90
39925;DHT22;25592;49.986;11.618;2023-02-21T00:50:16;10.40;99.90
39925;DHT22;25592;49.986;11.618;2023-02-21T00:53:23;10.40;99.90
39925;DHT22;25592;49.986;11.618;2023-02-21T00:56:27;10.30;99.90
39925;DHT22;25592;49.986;11.618;2023-02-21T00:59:31;10.30;99.90
39925;DHT22;25592;49.986;11.618;2023-02-21T01:02:35;10.20;99.90
39925;DHT22;25592;49.986;11.618;2023-02-21T01:05:38;10.20;99.90
39925;DHT22;25592;49.986;11.618;2023-02-21T01:08:44;10.10;99.90
39925;DHT22;25592;49.986;11.618;2023-02-21T01:11:48;10.10;99.90
39925;DHT22;25592;49.986;11.618;2023-02-21T01:14:52;10.10;99.90
39925;DHT22;25592;49.986;11.618;2023-02-21T01:17:56;10.10;99.90
39925;DHT22;25592;49.986;11.618;2023-02-21T01:21:00;10.10;99.90
39925;DHT22;25592;49.986;11.618;2023-02-21T01:24:05;10.10;99.90
39925;DHT22;25592;49.986;11.618;2023-02-21T01:27:09;10.10;99.90
39925;DHT22;25592;49.986;11.618;2023-02-21T01:30:13;10.10;99.90
39925;DHT22;25592;49.986;11.618;2023-02-21T01:33:17;10.10;99.90
39925;DHT22;25592;49.986;11.618;2023-02-21T01:36:21;10.20;99.90
39925;DHT22;25592;49.986;11.618;2023-02-21T01:39:25;10.30;99.90
39925;DHT22;25592;49.986;11.618;2023-02-21T01:42:29;10.30;99.90
39925;DHT22;25592;49.986;11.618;2023-02-21T01:45:41;10.20;99.90
39925;DHT22;25592;49.986;11.618;2023-02-21T01:48:46;10.30;99.90
39925;DHT22;25592;49.986;11.618;2023-02-21T01:51:52;10.40;99.90
39925;DHT22;25592;49.986;11.618;2023-02-21T01:54:56;10.30;99.90
39925;DHT22;25592;49.986;11.618;2023-02-21T01:58:00;10.30;99.90
39925;DHT22;25592;49.986;11.618;2023-02-21T02:01:04;10.30;99.90
39925;DHT22;25592;49.986;11.618;2023-02-21T02:04:08;10.30;99.90
39925;DHT22;25592;49.986;11.618;2023-02-21T02:07:12;10.20;99.90
39925;DHT22;25592;49.986;11.618;2023-02-21T02:10:17;10.10;99.90
39925;DHT22;25592;49.986;11.618;2023-02-21T02:13:58;10.10;99.90
39925;DHT22;25592;49.986;11.618;2023-02-21T02:16:48;10.00;99.90
39925;DHT22;25592;49.986;11.618;2023-02-21T02:22:59;10.00;99.90
39925;DHT22;25592;49.986;11.618;2023-02-21T02:35:30;10.10;99.90
39925;DHT22;25592;49.986;11.618;2023-02-21T02:45:10;10.10;99.90
39925;DHT22;25592;49.986;11.618;2023-02-21T02:48:14;10.20;99.90
39925;DHT22;25592;49.986;11.618;2023-02-21T02:51:02;10.20;99.90
39925;DHT22;25592;49.986;11.618;2023-02-21T02:53:50;10.20;99.90
39925;DHT22;25592;49.986;11.618;2023-02-21T02:56:35;10.20;99.90
39925;DHT22;25592;49.986;11.618;2023-02-21T02:59:24;10.20;99.90
39925;DHT22;25592;49.986;11.618;2023-02-21T03:02:25;10.20;99.90
39925;DHT22;25592;49.986;11.618;2023-02-21T03:08:44;10.20;99.90
39925;DHT22;25592;49.986;11.618;2023-02-21T03:11:37;10.10;99.90
39925;DHT22;25592;49.986;11.618;2023-02-21T03:14:32;10.10;99.90
39925;DHT22;25592;49.986;11.618;2023-02-21T03:17:19;10.10;99.90
39925;DHT22;25592;49.986;11.618;2023-02-21T03:20:10;9.90;99.90
39925;DHT22;25592;49.986;11.618;2023-02-21T03:22:57;10.00;99.90
39925;DHT22;25592;49.986;11.618;2023-02-21T03:25:44;9.90;99.90
39925;DHT22;25592;49.986;11.618;2023-02-21T03:28:32;9.90;99.90
39925;DHT22;25592;49.986;11.618;2023-02-21T03:31:20;9.90;99.90
39925;DHT22;25592;49.986;11.618;2023-02-21T03:34:08;10.00;99.90
39925;DHT22;25592;49.986;11.618;2023-02-21T03:36:54;9.90;99.90
39925;DHT22;25592;49.986;11.618;2023-02-21T03:39:39;9.90;99.90
39925;DHT22;25592;49.986;11.618;2023-02-21T03:42:25;9.90;99.90
39925;DHT22;25592;49.986;11.618;2023-02-21T03:45:10;10.00;99.90
39925;DHT22;25592;49.986;11.618;2023-02-21T03:47:56;10.00;99.90
39925;DHT22;25592;49.986;11.618;2023-02-21T03:50:41;10.00;99.90
39925;DHT22;25592;49.986;11.618;2023-02-21T03:53:27;10.00;99.90
39925;DHT22;25592;49.986;11.618;2023-02-21T03:56:12;10.10;99.90
39925;DHT22;25592;49.986;11.618;2023-02-21T03:58:57;10.00;99.90
39925;DHT22;25592;49.986;11.618;2023-02-21T04:01:43;10.10;99.90
39925;DHT22;25592;49.986;11.618;2023-02-21T04:04:28;10.20;99.90
39925;DHT22;25592;49.986;11.618;2023-02-21T04:07:16;10.20;99.90
39925;DHT22;25592;49.986;11.618;2023-02-21T04:10:02;10.30;99.90
39925;DHT22;25592;49.986;11.618;2023-02-21T04:12:47;10.20;99.90
39925;DHT22;25592;49.986;11.618;2023-02-21T04:15:33;10.30;99.90
39925;DHT22;25592;49.986;11.618;2023-02-21T04:18:18;10.30;99.90
39925;DHT22;25592;49.986;11.618;2023-02-21T04:21:03;10.30;99.90
39925;DHT22;25592;49.986;11.618;2023-02-21T04:23:49;10.30;99.90
39925;DHT22;25592;49.986;11.618;2023-02-21T04:26:34;10.40;99.90
39925;DHT22;25592;49.986;11.618;2023-02-21T04:29:20;10.40;99.90
39925;DHT22;25592;49.986;11.618;2023-02-21T04:32:05;10.40;99.90
39925;DHT22;25592;49.986;11.618;2023-02-21T04:34:50;10.30;99.90
39925;DHT22;25592;49.986;11.618;2023-02-21T04:37:36;10.20;99.90
39925;DHT22;25592;49.986;11.618;2023-02-21T04:40:21;10.10;99.90
39925;DHT22;25592;49.986;11.618;2023-02-21T04:43:06;10.10;99.90
39925;DHT22;25592;49.986;11.618;2023-02-21T04:45:52;10.20;99.90
39925;DHT22;25592;49.986;11.618;2023-02-21T04:48:37;10.20;99.90
39925;DHT22;25592;49.986;11.618;2023-02-21T04:51:24;10.20;99.90
39925;DHT22;25592;49.986;11.618;2023-02-21T04:54:09;10.20;99.90
39925;DHT22;25592;49.986;11.618;2023-02-21T04:56:57;10.10;99.90
39925;DHT22;25592;49.986;11.618;2023-02-21T04:59:43;10.20;99.90
39925;DHT22;25592;49.986;11.618;2023-02-21T05:02:28;10.20;99.90
39925;DHT22;25592;49.986;11.618;2023-02-21T05:05:14;10.20;99.90
39925;DHT22;25592;49.986;11.618;2023-02-21T05:07:59;10.10;99.90
39925;DHT22;25592;49.986;11.618;2023-02-21T05:10:44;10.10;99.90
39925;DHT22;25592;49.986;11.618;2023-02-21T05:13:30;10.10;99.90
39925;DHT22;25592;49.986;11.618;2023-02-21T05:16:16;10.20;99.90
39925;DHT22;25592;49.986;11.618;2023-02-21T05:19:01;10.10;99.90
39925;DHT22;25592;49.986;11.618;2023-02-21T05:21:47;10.10;99.90
39925;DHT22;25592;49.986;11.618;2023-02-21T05:24:33;10.00;99.90
39925;DHT22;25592;49.986;11.618;2023-02-21T05:27:20;10.10;99.90
39925;DHT22;25592;49.986;11.618;2023-02-21T05:30:06;10.00;99.90
39925;DHT22;25592;49.986;11.618;2023-02-21T05:32:51;9.90;99.90
39925;DHT22;25592;49.986;11.618;2023-02-21T05:35:37;9.90;99.90
39925;DHT22;25592;49.986;11.618;2023-02-21T05:38:23;9.90;99.90
39925;DHT22;25592;49.986;11.618;2023-02-21T05:41:08;9.80;99.90
39925;DHT22;25592;49.986;11.618;2023-02-21T05:43:53;9.80;99.90
39925;DHT22;25592;49.986;11.618;2023-02-21T05:46:39;9.90;99.90
39925;DHT22;25592;49.986;11.618;2023-02-21T05:49:24;9.90;99.90
39925;DHT22;25592;49.986;11.618;2023-02-21T05:52:13;9.80;99.90
39925;DHT22;25592;49.986;11.618;2023-02-21T05:54:58;9.80;99.90
39925;DHT22;25592;49.986;11.618;2023-02-21T05:57:44;9.90;99.90
39925;DHT22;25592;49.986;11.618;2023-02-21T06:00:30;10.00;99.90
39925;DHT22;25592;49.986;11.618;2023-02-21T06:03:15;10.00;99.90
39925;DHT22;25592;49.986;11.618;2023-02-21T06:06:01;9.90;99.90
39925;DHT22;25592;49.986;11.618;2023-02-21T06:08:48;9.90;99.90
39925;DHT22;25592;49.986;11.618;2023-02-21T06:11:34;9.90;99.90
39925;DHT22;25592;49.986;11.618;2023-02-21T06:14:21;9.90;99.90
39925;DHT22;25592;49.986;11.618;2023-02-21T06:17:06;10.00;99.90
39925;DHT22;25592;49.986;11.618;2023-02-21T06:19:55;10.00;99.90
39925;DHT22;25592;49.986;11.618;2023-02-21T06:22:40;9.90;99.90
39925;DHT22;25592;49.986;11.618;2023-02-21T06:25:25;9.90;99.90
39925;DHT22;25592;49.986;11.618;2023-02-21T06:28:11;9.90;99.90
39925;DHT22;25592;49.986;11.618;2023-02-21T06:30:56;9.70;99.90
39925;DHT22;25592;49.986;11.618;2023-02-21T06:33:42;9.70;99.90
39925;DHT22;25592;49.986;11.618;2023-02-21T06:36:28;9.80;99.90
39925;DHT22;25592;49.986;11.618;2023-02-21T06:39:13;9.80;99.90
39925;DHT22;25592;49.986;11.618;2023-02-21T06:41:58;9.80;99.90
39925;DHT22;25592;49.986;11.618;2023-02-21T06:44:45;9.80;99.90
39925;DHT22;25592;49.986;11.618;2023-02-21T06:47:30;9.80;99.90
39925;DHT22;25592;49.986;11.618;2023-02-21T06:50:15;9.80;99.90
39925;DHT22;25592;49.986;11.618;2023-02-21T06:53:01;9.70;99.90
39925;DHT22;25592;49.986;11.618;2023-02-21T06:55:46;9.70;99.90
39925;DHT22;25592;49.986;11.618;2023-02-21T06:58:32;9.50;99.90
39925;DHT22;25592;49.986;11.618;2023-02-21T07:01:17;9.50;99.90
39925;DHT22;25592;49.986;11.618;2023-02-21T07:04:03;9.50;99.90
39925;DHT22;25592;49.986;11.618;2023-02-21T07:06:48;9.60;99.90
39925;DHT22;25592;49.986;11.618;2023-02-21T07:09:34;9.60;99.90
39925;DHT22;25592;49.986;11.618;2023-02-21T07:12:19;9.60;99.90
39925;DHT22;25592;49.986;11.618;2023-02-21T07:15:05;9.60;99.90
39925;DHT22;25592;49.986;11.618;2023-02-21T07:17:51;9.50;99.90
39925;DHT22;25592;49.986;11.618;2023-02-21T07:20:36;9.40;99.90
39925;DHT22;25592;49.986;11.618;2023-02-21T07:23:20;9.50;99.90
39925;DHT22;25592;49.986;11.618;2023-02-21T07:26:06;9.60;99.90
39925;DHT22;25592;49.986;11.618;2023-02-21T07:28:51;9.70;99.90
39925;DHT22;25592;49.986;11.618;2023-02-21T07:31:37;9.70;99.90
39925;DHT22;25592;49.986;11.618;2023-02-21T07:34:22;9.70;99.90
39925;DHT22;25592;49.986;11.618;2023-02-21T07:37:07;9.70;99.90
39925;DHT22;25592;49.986;11.618;2023-02-21T07:39:53;9.70;99.90
39925;DHT22;25592;49.986;11.618;2023-02-21T07:42:40;9.60;99.90
39925;DHT22;25592;49.986;11.618;2023-02-21T07:45:27;9.50;99.90
39925;DHT22;25592;49.986;11.618;2023-02-21T07:48:13;9.60;99.90
39925;DHT22;25592;49.986;11.618;2023-02-21T07:50:58;9.70;99.90
39925;DHT22;25592;49.986;11.618;2023-02-21T07:53:44;9.80;99.90
39925;DHT22;25592;49.986;11.618;2023-02-21T07:56:29;9.80;99.90
39925;DHT22;25592;49.986;11.618;2023-02-21T07:59:15;9.90;99.90
39925;DHT22;25592;49.986;11.618;2023-02-21T08:02:00;10.00;99.90
39925;DHT22;25592;49.986;11.618;2023-02-21T08:04:50;10.00;99.90
39925;DHT22;25592;49.986;11.618;2023-02-21T08:07:36;10.00;99.90
39925;DHT22;25592;49.986;11.618;2023-02-21T08:10:23;10.00;99.90
39925;DHT22;25592;49.986;11.618;2023-02-21T08:13:09;10.10;99.90
39925;DHT22;25592;49.986;11.618;2023-02-21T08:15:54;10.10;99.90
39925;DHT22;25592;49.986;11.618;2023-02-21T08:18:40;10.30;99.90
39925;DHT22;25592;49.986;11.618;2023-02-21T08:21:26;10.30;99.90
39925;DHT22;25592;49.986;11.618;2023-02-21T08:24:12;10.40;99.90
39925;DHT22;25592;49.986;11.618;2023-02-21T08:26:58;10.30;99.90
39925;DHT22;25592;49.986;11.618;2023-02-21T08:29:43;10.40;99.90
39925;DHT22;25592;49.986;11.618;2023-02-21T08:32:29;10.40;99.90
39925;DHT22;25592;49.986;11.618;2023-02-21T08:35:15;10.40;99.90
39925;DHT22;25592;49.986;11.618;2023-02-21T08:38:00;10.40;99.90
39925;DHT22;25592;49.986;11.618;2023-02-21T08:40:47;10.30;99.90
39925;DHT22;25592;49.986;11.618;2023-02-21T08:43:33;10.20;99.90
39925;DHT22;25592;49.986;11.618;2023-02-21T08:46:18;10.30;99.90
39925;DHT22;25592;49.986;11.618;2023-02-21T08:49:04;10.40;99.90
39925;DHT22;25592;49.986;11.618;2023-02-21T08:51:49;10.50;99.90
39925;DHT22;25592;49.986;11.618;2023-02-21T08:54:35;10.50;99.90
39925;DHT22;25592;49.986;11.618;2023-02-21T08:57:20;10.50;99.90
39925;DHT22;25592;49.986;11.618;2023-02-21T09:00:07;10.60;99.90
39925;DHT22;25592;49.986;11.618;2023-02-21T09:03:00;10.60;99.90
39925;DHT22;25592;49.986;11.618;2023-02-21T09:05:45;10.60;99.90
39925;DHT22;25592;49.986;11.618;2023-02-21T09:08:31;10.50;99.90
39925;DHT22;25592;49.986;11.618;2023-02-21T09:11:16;10.50;99.90
39925;DHT22;25592;49.986;11.618;2023-02-21T09:14:01;10.50;99.90
39925;DHT22;25592;49.986;11.618;2023-02-21T09:16:50;10.60;99.90
39925;DHT22;25592;49.986;11.618;2023-02-21T09:19:36;10.60;99.90
39925;DHT22;25592;49.986;11.618;2023-02-21T09:22:22;10.60;99.90
39925;DHT22;25592;49.986;11.618;2023-02-21T09:25:07;10.50;99.90
39925;DHT22;25592;49.986;11.618;2023-02-21T09:27:56;10.60;99.90
39925;DHT22;25592;49.986;11.618;2023-02-21T09:30:44;10.70;99.90
39925;DHT22;25592;49.986;11.618;2023-02-21T09:33:30;10.70;99.90
39925;DHT22;25592;49.986;11.618;2023-02-21T09:36:16;10.80;99.90
39925;DHT22;25592;49.986;11.618;2023-02-21T09:39:07;11.00;99.90
39925;DHT22;25592;49.986;11.618;2023-02-21T09:41:53;10.90;99.90
39925;DHT22;25592;49.986;11.618;2023-02-21T09:44:41;11.10;99.90
39925;DHT22;25592;49.986;11.618;2023-02-21T09:47:31;11.20;99.90
39925;DHT22;25592;49.986;11.618;2023-02-21T09:50:22;11.10;99.90
39925;DHT22;25592;49.986;11.618;2023-02-21T09:53:15;10.90;99.90
39925;DHT22;25592;49.986;11.618;2023-02-21T09:56:05;10.90;99.90
39925;DHT22;25592;49.986;11.618;2023-02-21T09:58:51;10.90;99.90
39925;DHT22;25592;49.986;11.618;2023-02-21T10:02:37;11.10;99.90
39925;DHT22;25592;49.986;11.618;2023-02-21T10:05:19;11.00;99.90
39925;DHT22;25592;49.986;11.618;2023-02-21T10:08:29;11.10;99.90
39925;DHT22;25592;49.986;11.618;2023-02-21T10:11:53;11.20;99.90
39925;DHT22;25592;49.986;11.618;2023-02-21T10:15:15;11.30;99.90
39925;DHT22;25592;49.986;11.618;2023-02-21T10:18:32;11.40;99.90
39925;DHT22;25592;49.986;11.618;2023-02-21T10:21:34;11.40;99.90
39925;DHT22;25592;49.986;11.618;2023-02-21T10:24:22;11.30;99.90
39925;DHT22;25592;49.986;11.618;2023-02-21T10:27:14;11.30;99.90
39925;DHT22;25592;49.986;11.618;2023-02-21T10:30:06;11.50;99.90
39925;DHT22;25592;49.986;11.618;2023-02-21T10:32:55;11.50;99.90
39925;DHT22;25592;49.986;11.618;2023-02-21T10:35:40;11.60;99.90
39925;DHT22;25592;49.986;11.618;2023-02-21T10:38:26;11.50;99.90
39925;DHT22;25592;49.986;11.618;2023-02-21T10:41:11;11.50;99.90
39925;DHT22;25592;49.986;11.618;2023-02-21T10:44:06;11.60;99.90
39925;DHT22;25592;49.986;11.618;2023-02-21T10:47:01;11.70;99.90
39925;DHT22;25592;49.986;11.618;2023-02-21T10:52:48;11.60;99.90
39925;DHT22;25592;49.986;11.618;2023-02-21T10:55:33;11.80;99.90
39925;DHT22;25592;49.986;11.618;2023-02-21T10:58:22;12.00;99.90
39925;DHT22;25592;49.986;11.618;2023-02-21T11:01:18;12.10;99.90
39925;DHT22;25592;49.986;11.618;2023-02-21T11:07:09;12.30;99.90
39925;DHT22;25592;49.986;11.618;2023-02-21T11:09:54;12.50;99.90
39925;DHT22;25592;49.986;11.618;2023-02-21T11:12:40;12.50;99.90
39925;DHT22;25592;49.986;11.618;2023-02-21T11:15:25;12.50;99.90
39925;DHT22;25592;49.986;11.618;2023-02-21T11:21:15;12.70;99.90
39925;DHT22;25592;49.986;11.618;2023-02-21T11:24:04;12.70;99.90
39925;DHT22;25592;49.986;11.618;2023-02-21T11:26:52;12.70;99.90
39925;DHT22;25592;49.986;11.618;2023-02-21T11:29:41;12.60;99.90
39925;DHT22;25592;49.986;11.618;2023-02-21T11:32:37;12.70;99.90
39925;DHT22;25592;49.986;11.618;2023-02-21T11:35:36;12.80;99.90
39925;DHT22;25592;49.986;11.618;2023-02-21T11:38:39;13.00;99.90
39925;DHT22;25592;49.986;11.618;2023-02-21T11:44:25;13.60;99.90
39925;DHT22;25592;49.986;11.618;2023-02-21T11:47:32;13.90;99.90
39925;DHT22;25592;49.986;11.618;2023-02-21T11:50:26;13.90;99.90
39925;DHT22;25592;49.986;11.618;2023-02-21T11:53:19;13.90;99.90
39925;DHT22;25592;49.986;11.618;2023-02-21T11:56:12;13.70;99.90
39925;DHT22;25592;49.986;11.618;2023-02-21T12:08:42;13.70;99.90
39925;DHT22;25592;49.986;11.618;2023-02-21T12:11:58;13.70;99.90
39925;DHT22;25592;49.986;11.618;2023-02-21T12:15:00;13.70;99.90
39925;DHT22;25592;49.986;11.618;2023-02-21T12:17:59;13.90;99.90
39925;DHT22;25592;49.986;11.618;2023-02-21T12:21:09;14.00;99.90
39925;DHT22;25592;49.986;11.618;2023-02-21T12:33:11;14.20;99.90
39925;DHT22;25592;49.986;11.618;2023-02-21T12:36:25;14.30;99.90
39925;DHT22;25592;49.986;11.618;2023-02-21T12:39:22;14.30;99.90
39925;DHT22;25592;49.986;11.618;2023-02-21T12:42:35;14.40;99.90
39925;DHT22;25592;49.986;11.618;2023-02-21T12:45:38;14.30;99.90
39925;DHT22;25592;49.986;11.618;2023-02-21T12:48:58;14.40;99.90
39925;DHT22;25592;49.986;11.618;2023-02-21T12:58:16;14.50;99.90
39925;DHT22;25592;49.986;11.618;2023-02-21T13:01:13;14.60;99.90
39925;DHT22;25592;49.986;11.618;2023-02-21T13:04:13;14.60;99.90
39925;DHT22;25592;49.986;11.618;2023-02-21T13:07:05;14.50;99.90
39925;DHT22;25592;49.986;11.618;2023-02-21T13:10:21;14.50;99.90
39925;DHT22;25592;49.986;11.618;2023-02-21T13:13:09;14.50;99.90
39925;DHT22;25592;49.986;11.618;2023-02-21T13:15:56;14.50;99.90
39925;DHT22;25592;49.986;11.618;2023-02-21T13:18:50;14.50;99.90
39925;DHT22;25592;49.986;11.618;2023-02-21T13:21:56;14.50;99.90
39925;DHT22;25592;49.986;11.618;2023-02-21T13:28:21;14.40;99.90
39925;DHT22;25592;49.986;11.618;2023-02-21T13:31:18;14.50;99.90
39925;DHT22;25592;49.986;11.618;2023-02-21T13:34:09;14.40;99.90
39925;DHT22;25592;49.986;11.618;2023-02-21T13:37:01;14.40;99.90
39925;DHT22;25592;49.986;11.618;2023-02-21T13:39:52;14.30;99.90
39925;DHT22;25592;49.986;11.618;2023-02-21T13:42:40;14.40;99.90
39925;DHT22;25592;49.986;11.618;2023-02-21T13:45:26;14.40;99.90
39925;DHT22;25592;49.986;11.618;2023-02-21T13:48:27;14.40;99.90
39925;DHT22;25592;49.986;11.618;2023-02-21T13:51:47;14.50;99.90
39925;DHT22;25592;49.986;11.618;2023-02-21T13:54:33;14.50;99.90
39925;DHT22;25592;49.986;11.618;2023-02-21T13:57:29;14.60;99.90
39925;DHT22;25592;49.986;11.618;2023-02-21T14:08:48;14.60;99.90
39925;DHT22;25592;49.986;11.618;2023-02-21T14:11:38;14.60;99.90
39925;DHT22;25592;49.986;11.618;2023-02-21T14:14:30;14.40;99.90
39925;DHT22;25592;49.986;11.618;2023-02-21T14:17:26;14.30;99.90
39925;DHT22;25592;49.986;11.618;2023-02-21T14:20:18;14.20;99.90
39925;DHT22;25592;49.986;11.618;2023-02-21T14:23:05;14.20;99.90
39925;DHT22;25592;49.986;11.618;2023-02-21T14:25:59;14.30;99.90
39925;DHT22;25592;49.986;11.618;2023-02-21T14:37:40;13.80;99.90
39925;DHT22;25592;49.986;11.618;2023-02-21T14:40:41;13.70;99.90
39925;DHT22;25592;49.986;11.618;2023-02-21T14:49:54;13.70;99.90
39925;DHT22;25592;49.986;11.618;2023-02-21T14:56:01;13.80;99.90
39925;DHT22;25592;49.986;11.618;2023-02-21T15:05:00;13.70;99.90
39925;DHT22;25592;49.986;11.618;2023-02-21T15:10:39;13.60;99.90
39925;DHT22;25592;49.986;11.618;2023-02-21T15:13:34;13.80;99.90
39925;DHT22;25592;49.986;11.618;2023-02-21T15:16:20;13.90;99.90
39925;DHT22;25592;49.986;11.618;2023-02-21T15:19:05;13.90;99.90
39925;DHT22;25592;49.986;11.618;2023-02-21T15:22:19;13.80;99.90
39925;DHT22;25592;49.986;11.618;2023-02-21T15:27:55;13.80;99.90
39925;DHT22;25592;49.986;11.618;2023-02-21T15:30:41;13.70;99.90
39925;DHT22;25592;49.986;11.618;2023-02-21T15:33:31;13.70;99.90
39925;DHT22;25592;49.986;11.618;2023-02-21T15:36:21;13.70;99.90
39925;DHT22;25592;49.986;11.618;2023-02-21T15:39:28;13.70;99.90
39925;DHT22;25592;49.986;11.618;2023-02-21T15:42:15;13.70;99.90
39925;DHT22;25592;49.986;11.618;2023-02-21T15:45:06;13.70;99.90
39925;DHT22;25592;49.986;11.618;2023-02-21T15:47:52;13.70;99.90
39925;DHT22;25592;49.986;11.618;2023-02-21T15:50:43;13.70;99.90
39925;DHT22;25592;49.986;11.618;2023-02-21T15:53:29;13.70;99.90
39925;DHT22;25592;49.986;11.618;2023-02-21T15:56:19;13.80;99.90
39925;DHT22;25592;49.986;11.618;2023-02-21T15:59:17;13.70;99.90
39925;DHT22;25592;49.986;11.618;2023-02-21T16:02:11;13.70;99.90
39925;DHT22;25592;49.986;11.618;2023-02-21T16:04:57;13.70;99.90
39925;DHT22;25592;49.986;11.618;2023-02-21T16:07:43;13.70;99.90
39925;DHT22;25592;49.986;11.618;2023-02-21T16:10:33;13.60;99.90
39925;DHT22;25592;49.986;11.618;2023-02-21T16:13:19;13.60;99.90
39925;DHT22;25592;49.986;11.618;2023-02-21T16:16:05;13.60;99.90
39925;DHT22;25592;49.986;11.618;2023-02-21T16:18:54;13.50;99.90
39925;DHT22;25592;49.986;11.618;2023-02-21T16:21:40;13.50;99.90
39925;DHT22;25592;49.986;11.618;2023-02-21T16:24:31;13.60;99.90
39925;DHT22;25592;49.986;11.618;2023-02-21T16:27:17;13.60;99.90
39925;DHT22;25592;49.986;11.618;2023-02-21T16:30:03;13.60;99.90
39925;DHT22;25592;49.986;11.618;2023-02-21T16:32:51;13.60;99.90
39925;DHT22;25592;49.986;11.618;2023-02-21T16:35:37;13.60;99.90
39925;DHT22;25592;49.986;11.618;2023-02-21T16:38:24;13.50;99.90
39925;DHT22;25592;49.986;11.618;2023-02-21T16:41:13;13.50;99.90
39925;DHT22;25592;49.986;11.618;2023-02-21T16:44:00;13.50;99.90
39925;DHT22;25592;49.986;11.618;2023-02-21T16:46:46;13.50;99.90
39925;DHT22;25592;49.986;11.618;2023-02-21T16:49:31;13.50;99.90
39925;DHT22;25592;49.986;11.618;2023-02-21T16:52:17;13.50;99.90
39925;DHT22;25592;49.986;11.618;2023-02-21T16:55:03;13.50;99.90
39925;DHT22;25592;49.986;11.618;2023-02-21T16:57:50;13.50;99.90
39925;DHT22;25592;49.986;11.618;2023-02-21T17:00:38;13.50;99.90
39925;DHT22;25592;49.986;11.618;2023-02-21T17:03:23;13.50;99.90
39925;DHT22;25592;49.986;11.618;2023-02-21T17:06:17;13.50;99.90
39925;DHT22;25592;49.986;11.618;2023-02-21T17:09:03;13.40;99.90
39925;DHT22;25592;49.986;11.618;2023-02-21T17:11:49;13.50;99.90
39925;DHT22;25592;49.986;11.618;2023-02-21T17:14:34;13.40;99.90
39925;DHT22;25592;49.986;11.618;2023-02-21T17:17:20;13.40;99.90
39925;DHT22;25592;49.986;11.618;2023-02-21T17:20:07;13.40;99.90
39925;DHT22;25592;49.986;11.618;2023-02-21T17:22:53;13.40;99.90
39925;DHT22;25592;49.986;11.618;2023-02-21T17:25:38;13.30;99.90
39925;DHT22;25592;49.986;11.618;2023-02-21T17:28:23;13.30;99.90
39925;DHT22;25592;49.986;11.618;2023-02-21T17:31:14;13.30;99.90
39925;DHT22;25592;49.986;11.618;2023-02-21T17:34:00;13.20;99.90
39925;DHT22;25592;49.986;11.618;2023-02-21T17:36:50;13.20;99.90
39925;DHT22;25592;49.986;11.618;2023-02-21T17:39:35;13.20;99.90
39925;DHT22;25592;49.986;11.618;2023-02-21T17:42:22;13.20;99.90
39925;DHT22;25592;49.986;11.618;2023-02-21T17:45:08;13.20;99.90
39925;DHT22;25592;49.986;11.618;2023-02-21T17:47:54;13.10;99.90
39925;DHT22;25592;49.986;11.618;2023-02-21T17:50:40;13.10;99.90
39925;DHT22;25592;49.986;11.618;2023-02-21T17:53:25;13.10;99.90
39925;DHT22;25592;49.986;11.618;2023-02-21T17:56:15;13.10;99.90
39925;DHT22;25592;49.986;11.618;2023-02-21T17:59:01;13.20;99.90
39925;DHT22;25592;49.986;11.618;2023-02-21T18:01:46;13.10;99.90
39925;DHT22;25592;49.986;11.618;2023-02-21T18:04:32;13.10;99.90
39925;DHT22;25592;49.986;11.618;2023-02-21T18:07:17;13.10;99.90
39925;DHT22;25592;49.986;11.618;2023-02-21T18:10:04;13.10;99.90
39925;DHT22;25592;49.986;11.618;2023-02-21T18:12:50;13.20;99.90
39925;DHT22;25592;49.986;11.618;2023-02-21T18:15:36;13.10;99.90
39925;DHT22;25592;49.986;11.618;2023-02-21T18:18:21;13.20;99.90
39925;DHT22;25592;49.986;11.618;2023-02-21T18:21:07;13.20;99.90
39925;DHT22;25592;49.986;11.618;2023-02-21T18:23:53;13.20;99.90
39925;DHT22;25592;49.986;11.618;2023-02-21T18:26:38;13.20;99.90
39925;DHT22;25592;49.986;11.618;2023-02-21T18:29:24;13.10;99.90
39925;DHT22;25592;49.986;11.618;2023-02-21T18:32:09;13.10;99.90
39925;DHT22;25592;49.986;11.618;2023-02-21T18:34:54;13.10;99.90
39925;DHT22;25592;49.986;11.618;2023-02-21T18:37:41;13.10;99.90
39925;DHT22;25592;49.986;11.618;2023-02-21T18:40:26;13.00;99.90
39925;DHT22;25592;49.986;11.618;2023-02-21T18:43:23;13.00;99.90
39925;DHT22;25592;49.986;11.618;2023-02-21T18:46:10;13.00;99.90
39925;DHT22;25592;49.986;11.618;2023-02-21T18:48:55;13.00;99.90
39925;DHT22;25592;49.986;11.618;2023-02-21T18:51:41;13.00;99.90
39925;DHT22;25592;49.986;11.618;2023-02-21T18:54:26;13.00;99.90
39925;DHT22;25592;49.986;11.618;2023-02-21T18:57:12;13.00;99.90
39925;DHT22;25592;49.986;11.618;2023-02-21T18:59:57;13.00;99.90
39925;DHT22;25592;49.986;11.618;2023-02-21T19:02:42;13.00;99.90
39925;DHT22;25592;49.986;11.618;2023-02-21T19:05:28;12.90;99.90
39925;DHT22;25592;49.986;11.618;2023-02-21T19:08:13;13.00;99.90
39925;DHT22;25592;49.986;11.618;2023-02-21T19:10:59;12.90;99.90
39925;DHT22;25592;49.986;11.618;2023-02-21T19:13:45;13.00;99.90
39925;DHT22;25592;49.986;11.618;2023-02-21T19:16:33;12.90;99.90
39925;DHT22;25592;49.986;11.618;2023-02-21T19:19:19;12.90;99.90
39925;DHT22;25592;49.986;11.618;2023-02-21T19:22:04;12.90;99.90
39925;DHT22;25592;49.986;11.618;2023-02-21T19:24:50;12.90;99.90
39925;DHT22;25592;49.986;11.618;2023-02-21T19:27:35;12.90;99.90